sensor_id;sensor_type;location;lat;lon;timestamp;temperature;humidity
46029;DHT22;31763;48.180;7.904;2024-01-15T00:00:21;-2.90;99.90
46029;DHT22;31763;48.180;7.904;2024-01-15T00:02:48;-2.90;99.90
46029;DHT22;31763;48.180;7.904;2024-01-15T00:05:15;-2.90;99.90
46029;DHT22;31763;48.180;7.904;2024-01-15T00:07:42;-2.90;99.90
46029;DHT22;31763;48.180;7.904;2024-01-15T00:10:09;-3.00;99.90
46029;DHT22;31763;48.180;7.904;2024-01-15T00:12:36;-3.00;99.90
46029;DHT22;31763;48.180;7.904;2024-01-15T00:15:03;-3.00;99.90
46029;DHT22;31763;48.180;7.904;2024-01-15T00:17:31;-3.20;99.90
46029;DHT22;31763;48.180;7.904;2024-01-15T00:19:58;-3.10;99.90
46029;DHT22;31763;48.180;7.904;2024-01-15T00:22:26;-3.20;99.90
46029;DHT22;31763;48.180;7.904;2024-01-15T00:24:54;-3.20;99.90
46029;DHT22;31763;48.180;7.904;2024-01-15T00:27:21;-3.10;99.90
46029;DHT22;31763;48.180;7.904;2024-01-15T00:29:48;-3.00;99.90
46029;DHT22;31763;48.180;7.904;2024-01-15T00:32:17;-3.00;99.90
46029;DHT22;31763;48.180;7.904;2024-01-15T00:34:43;-3.00;99.90
46029;DHT22;31763;48.180;7.904;2024-01-15T00:37:11;-2.90;99.90
46029;DHT22;31763;48.180;7.904;2024-01-15T00:39:38;-2.80;99.90
46029;DHT22;31763;48.180;7.904;2024-01-15T00:42:05;-2.80;99.90
46029;DHT22;31763;48.180;7.904;2024-01-15T00:44:32;-2.90;99.90
46029;DHT22;31763;48.180;7.904;2024-01-15T00:46:59;-2.80;99.90
46029;DHT22;31763;48.180;7.904;2024-01-15T00:49:27;-2.80;99.90
46029;DHT22;31763;48.180;7.904;2024-01-15T00:51:54;-2.70;99.90
46029;DHT22;31763;48.180;7.904;2024-01-15T00:54:21;-2.70;99.90
46029;DHT22;31763;48.180;7.904;2024-01-15T00:56:48;-2.70;99.90
46029;DHT22;31763;48.180;7.904;2024-01-15T00:59:15;-2.60;99.90
46029;DHT22;31763;48.180;7.904;2024-01-15T01:01:43;-2.60;99.90
46029;DHT22;31763;48.180;7.904;2024-01-15T01:04:10;-2.60;99.90
46029;DHT22;31763;48.180;7.904;2024-01-15T01:06:38;-2.50;99.90
46029;DHT22;31763;48.180;7.904;2024-01-15T01:09:05;-2.60;99.90
46029;DHT22;31763;48.180;7.904;2024-01-15T01:11:32;-2.60;99.90
46029;DHT22;31763;48.180;7.904;2024-01-15T01:13:59;-2.50;99.90
46029;DHT22;31763;48.180;7.904;2024-01-15T01:16:27;-2.50;99.90
46029;DHT22;31763;48.180;7.904;2024-01-15T01:18:54;-2.50;99.90
46029;DHT22;31763;48.180;7.904;2024-01-15T01:21:21;-2.50;99.90
46029;DHT22;31763;48.180;7.904;2024-01-15T01:23:48;-2.50;99.90
46029;DHT22;31763;48.180;7.904;2024-01-15T01:26:16;-2.60;99.90
46029;DHT22;31763;48.180;7.904;2024-01-15T01:28:44;-2.70;99.90
46029;DHT22;31763;48.180;7.904;2024-01-15T01:31:10;-2.70;99.90
46029;DHT22;31763;48.180;7.904;2024-01-15T01:33:38;-2.70;99.90
46029;DHT22;31763;48.180;7.904;2024-01-15T01:36:08;-2.80;99.90
46029;DHT22;31763;48.180;7.904;2024-01-15T01:38:37;-2.70;99.90
46029;DHT22;31763;48.180;7.904;2024-01-15T01:41:04;-2.70;99.90
46029;DHT22;31763;48.180;7.904;2024-01-15T01:43:31;-2.80;99.90
46029;DHT22;31763;48.180;7.904;2024-01-15T01:45:58;-2.80;99.90
46029;DHT22;31763;48.180;7.904;2024-01-15T01:48:27;-2.80;99.90
46029;DHT22;31763;48.180;7.904;2024-01-15T01:50:57;-2.70;99.90
46029;DHT22;31763;48.180;7.904;2024-01-15T01:53:26;-2.70;99.90
46029;DHT22;31763;48.180;7.904;2024-01-15T01:55:54;-2.70;99.90
46029;DHT22;31763;48.180;7.904;2024-01-15T01:58:22;-2.70;99.90
46029;DHT22;31763;48.180;7.904;2024-01-15T02:00:49;-2.80;99.90
46029;DHT22;31763;48.180;7.904;2024-01-15T02:03:16;-2.80;99.90
46029;DHT22;31763;48.180;7.904;2024-01-15T02:05:43;-2.70;99.90
46029;DHT22;31763;48.180;7.904;2024-01-15T02:08:13;-2.80;99.90
46029;DHT22;31763;48.180;7.904;2024-01-15T02:10:40;-2.70;99.90
46029;DHT22;31763;48.180;7.904;2024-01-15T02:13:07;-2.70;99.90
46029;DHT22;31763;48.180;7.904;2024-01-15T02:15:34;-2.60;99.90
46029;DHT22;31763;48.180;7.904;2024-01-15T02:18:04;-2.60;99.90
46029;DHT22;31763;48.180;7.904;2024-01-15T02:20:32;-2.60;99.90
46029;DHT22;31763;48.180;7.904;2024-01-15T02:25:41;-2.60;99.90
46029;DHT22;31763;48.180;7.904;2024-01-15T02:28:11;-2.70;99.90
46029;DHT22;31763;48.180;7.904;2024-01-15T02:30:40;-2.60;99.90
46029;DHT22;31763;48.180;7.904;2024-01-15T02:33:09;-2.70;99.90
46029;DHT22;31763;48.180;7.904;2024-01-15T02:35:37;-2.70;99.90
46029;DHT22;31763;48.180;7.904;2024-01-15T02:38:07;-2.70;99.90
46029;DHT22;31763;48.180;7.904;2024-01-15T02:40:35;-2.70;99.90
46029;DHT22;31763;48.180;7.904;2024-01-15T02:43:02;-2.80;99.90
46029;DHT22;31763;48.180;7.904;2024-01-15T02:45:29;-2.80;99.90
46029;DHT22;31763;48.180;7.904;2024-01-15T02:47:56;-2.80;99.90
46029;DHT22;31763;48.180;7.904;2024-01-15T02:50:24;-2.80;99.90
46029;DHT22;31763;48.180;7.904;2024-01-15T02:52:50;-2.80;99.90
46029;DHT22;31763;48.180;7.904;2024-01-15T02:55:17;-2.90;99.90
46029;DHT22;31763;48.180;7.904;2024-01-15T02:57:44;-2.90;99.90
46029;DHT22;31763;48.180;7.904;2024-01-15T03:00:12;-2.90;99.90
46029;DHT22;31763;48.180;7.904;2024-01-15T03:02:40;-3.00;99.90
46029;DHT22;31763;48.180;7.904;2024-01-15T03:05:11;-3.00;99.90
46029;DHT22;31763;48.180;7.904;2024-01-15T03:07:38;-3.00;99.90
46029;DHT22;31763;48.180;7.904;2024-01-15T03:10:06;-3.00;99.90
46029;DHT22;31763;48.180;7.904;2024-01-15T03:12:33;-3.00;99.90
46029;DHT22;31763;48.180;7.904;2024-01-15T03:15:01;-3.00;99.90
46029;DHT22;31763;48.180;7.904;2024-01-15T03:17:28;-3.10;99.90
46029;DHT22;31763;48.180;7.904;2024-01-15T03:19:55;-3.10;99.90
46029;DHT22;31763;48.180;7.904;2024-01-15T03:22:22;-3.10;99.90
46029;DHT22;31763;48.180;7.904;2024-01-15T03:24:49;-3.10;99.90
46029;DHT22;31763;48.180;7.904;2024-01-15T03:27:16;-3.20;99.90
46029;DHT22;31763;48.180;7.904;2024-01-15T03:29:43;-3.30;99.90
46029;DHT22;31763;48.180;7.904;2024-01-15T03:32:10;-3.30;99.90
46029;DHT22;31763;48.180;7.904;2024-01-15T03:34:37;-3.30;99.90
46029;DHT22;31763;48.180;7.904;2024-01-15T03:37:04;-3.30;99.90
46029;DHT22;31763;48.180;7.904;2024-01-15T03:39:30;-3.30;99.90
46029;DHT22;31763;48.180;7.904;2024-01-15T03:41:57;-3.40;99.90
46029;DHT22;31763;48.180;7.904;2024-01-15T03:44:24;-3.40;99.90
46029;DHT22;31763;48.180;7.904;2024-01-15T03:46:51;-3.40;99.90
46029;DHT22;31763;48.180;7.904;2024-01-15T03:49:18;-3.30;99.90
46029;DHT22;31763;48.180;7.904;2024-01-15T03:51:45;-3.30;99.90
46029;DHT22;31763;48.180;7.904;2024-01-15T03:54:12;-3.40;99.90
46029;DHT22;31763;48.180;7.904;2024-01-15T03:56:39;-3.30;99.90
46029;DHT22;31763;48.180;7.904;2024-01-15T03:59:06;-3.40;99.90
46029;DHT22;31763;48.180;7.904;2024-01-15T04:01:33;-3.40;99.90
46029;DHT22;31763;48.180;7.904;2024-01-15T04:04:00;-3.40;99.90
46029;DHT22;31763;48.180;7.904;2024-01-15T04:06:27;-3.40;99.90
46029;DHT22;31763;48.180;7.904;2024-01-15T04:08:54;-3.40;99.90
46029;DHT22;31763;48.180;7.904;2024-01-15T04:11:21;-3.40;99.90
46029;DHT22;31763;48.180;7.904;2024-01-15T04:13:49;-3.40;99.90
46029;DHT22;31763;48.180;7.904;2024-01-15T04:16:16;-3.30;99.90
46029;DHT22;31763;48.180;7.904;2024-01-15T04:18:43;-3.40;99.90
46029;DHT22;31763;48.180;7.904;2024-01-15T04:21:10;-3.40;99.90
46029;DHT22;31763;48.180;7.904;2024-01-15T04:23:38;-3.40;99.90
46029;DHT22;31763;48.180;7.904;2024-01-15T04:26:05;-3.40;99.90
46029;DHT22;31763;48.180;7.904;2024-01-15T04:28:32;-3.40;99.90
46029;DHT22;31763;48.180;7.904;2024-01-15T04:30:59;-3.30;99.90
46029;DHT22;31763;48.180;7.904;2024-01-15T04:33:26;-3.30;99.90
46029;DHT22;31763;48.180;7.904;2024-01-15T04:35:53;-3.20;99.90
46029;DHT22;31763;48.180;7.904;2024-01-15T04:38:20;-3.20;99.90
46029;DHT22;31763;48.180;7.904;2024-01-15T04:40:47;-3.10;99.90
46029;DHT22;31763;48.180;7.904;2024-01-15T04:43:14;-3.20;99.90
46029;DHT22;31763;48.180;7.904;2024-01-15T04:45:40;-3.20;99.90
46029;DHT22;31763;48.180;7.904;2024-01-15T04:48:07;-3.10;99.90
46029;DHT22;31763;48.180;7.904;2024-01-15T04:50:34;-3.10;99.90
46029;DHT22;31763;48.180;7.904;2024-01-15T04:53:01;-3.10;99.90
46029;DHT22;31763;48.180;7.904;2024-01-15T04:55:28;-3.20;99.90
46029;DHT22;31763;48.180;7.904;2024-01-15T04:57:55;-3.20;99.90
46029;DHT22;31763;48.180;7.904;2024-01-15T05:00:22;-3.20;99.90
46029;DHT22;31763;48.180;7.904;2024-01-15T05:02:49;-3.20;99.90
46029;DHT22;31763;48.180;7.904;2024-01-15T05:05:16;-3.30;99.90
46029;DHT22;31763;48.180;7.904;2024-01-15T05:07:43;-3.20;99.90
46029;DHT22;31763;48.180;7.904;2024-01-15T05:10:10;-3.20;99.90
46029;DHT22;31763;48.180;7.904;2024-01-15T05:15:05;-3.30;99.90
46029;DHT22;31763;48.180;7.904;2024-01-15T05:17:32;-3.20;99.90
46029;DHT22;31763;48.180;7.904;2024-01-15T05:19:59;-3.20;99.90
46029;DHT22;31763;48.180;7.904;2024-01-15T05:22:26;-3.20;99.90
46029;DHT22;31763;48.180;7.904;2024-01-15T05:24:53;-3.20;99.90
46029;DHT22;31763;48.180;7.904;2024-01-15T05:27:20;-3.20;99.90
46029;DHT22;31763;48.180;7.904;2024-01-15T05:29:47;-3.20;99.90
46029;DHT22;31763;48.180;7.904;2024-01-15T05:32:14;-3.20;99.90
46029;DHT22;31763;48.180;7.904;2024-01-15T05:34:41;-3.10;99.90
46029;DHT22;31763;48.180;7.904;2024-01-15T05:37:07;-3.20;99.90
46029;DHT22;31763;48.180;7.904;2024-01-15T05:39:34;-3.20;99.90
46029;DHT22;31763;48.180;7.904;2024-01-15T05:42:01;-3.20;99.90
46029;DHT22;31763;48.180;7.904;2024-01-15T05:44:28;-3.20;99.90
46029;DHT22;31763;48.180;7.904;2024-01-15T05:46:55;-3.30;99.90
46029;DHT22;31763;48.180;7.904;2024-01-15T05:49:22;-3.40;99.90
46029;DHT22;31763;48.180;7.904;2024-01-15T05:51:49;-3.30;99.90
46029;DHT22;31763;48.180;7.904;2024-01-15T05:54:18;-3.30;99.90
46029;DHT22;31763;48.180;7.904;2024-01-15T05:56:46;-3.30;99.90
46029;DHT22;31763;48.180;7.904;2024-01-15T05:59:13;-3.30;99.90
46029;DHT22;31763;48.180;7.904;2024-01-15T06:01:41;-3.20;99.90
46029;DHT22;31763;48.180;7.904;2024-01-15T06:04:08;-3.30;99.90
46029;DHT22;31763;48.180;7.904;2024-01-15T06:06:35;-3.30;99.90
46029;DHT22;31763;48.180;7.904;2024-01-15T06:09:02;-3.20;99.90
46029;DHT22;31763;48.180;7.904;2024-01-15T06:11:32;-3.30;99.90
46029;DHT22;31763;48.180;7.904;2024-01-15T06:13:59;-3.30;99.90
46029;DHT22;31763;48.180;7.904;2024-01-15T06:16:29;-3.10;99.90
46029;DHT22;31763;48.180;7.904;2024-01-15T06:18:56;-3.10;99.90
46029;DHT22;31763;48.180;7.904;2024-01-15T06:21:23;-3.10;99.90
46029;DHT22;31763;48.180;7.904;2024-01-15T06:23:50;-3.10;99.90
46029;DHT22;31763;48.180;7.904;2024-01-15T06:26:17;-3.10;99.90
46029;DHT22;31763;48.180;7.904;2024-01-15T06:28:44;-3.10;99.90
46029;DHT22;31763;48.180;7.904;2024-01-15T06:31:11;-3.10;99.90
46029;DHT22;31763;48.180;7.904;2024-01-15T06:33:38;-3.10;99.90
46029;DHT22;31763;48.180;7.904;2024-01-15T06:36:06;-3.00;99.90
46029;DHT22;31763;48.180;7.904;2024-01-15T06:38:33;-3.00;99.90
46029;DHT22;31763;48.180;7.904;2024-01-15T06:41:00;-3.00;99.90
46029;DHT22;31763;48.180;7.904;2024-01-15T06:43:27;-3.00;99.90
46029;DHT22;31763;48.180;7.904;2024-01-15T06:45:54;-2.90;99.90
46029;DHT22;31763;48.180;7.904;2024-01-15T06:48:21;-3.00;99.90
46029;DHT22;31763;48.180;7.904;2024-01-15T06:50:49;-3.00;99.90
46029;DHT22;31763;48.180;7.904;2024-01-15T06:53:16;-3.00;99.90
46029;DHT22;31763;48.180;7.904;2024-01-15T06:55:42;-3.00;99.90
46029;DHT22;31763;48.180;7.904;2024-01-15T06:58:09;-3.00;99.90
46029;DHT22;31763;48.180;7.904;2024-01-15T07:00:36;-3.00;99.90
46029;DHT22;31763;48.180;7.904;2024-01-15T07:03:04;-3.00;99.90
46029;DHT22;31763;48.180;7.904;2024-01-15T07:05:31;-2.90;99.90
46029;DHT22;31763;48.180;7.904;2024-01-15T07:07:58;-2.90;99.90
46029;DHT22;31763;48.180;7.904;2024-01-15T07:10:25;-2.90;99.90
46029;DHT22;31763;48.180;7.904;2024-01-15T07:12:52;-2.80;99.90
46029;DHT22;31763;48.180;7.904;2024-01-15T07:15:20;-2.80;99.90
46029;DHT22;31763;48.180;7.904;2024-01-15T07:17:47;-2.80;99.90
46029;DHT22;31763;48.180;7.904;2024-01-15T07:20:14;-2.80;99.90
46029;DHT22;31763;48.180;7.904;2024-01-15T07:22:41;-2.70;99.90
46029;DHT22;31763;48.180;7.904;2024-01-15T07:25:08;-2.70;99.90
46029;DHT22;31763;48.180;7.904;2024-01-15T07:27:35;-2.70;99.90
46029;DHT22;31763;48.180;7.904;2024-01-15T07:30:02;-2.70;99.90
46029;DHT22;31763;48.180;7.904;2024-01-15T07:32:32;-2.70;99.90
46029;DHT22;31763;48.180;7.904;2024-01-15T07:34:58;-2.70;99.90
46029;DHT22;31763;48.180;7.904;2024-01-15T07:37:26;-2.60;99.90
46029;DHT22;31763;48.180;7.904;2024-01-15T07:39:53;-2.60;99.90
46029;DHT22;31763;48.180;7.904;2024-01-15T07:42:20;-2.60;99.90
46029;DHT22;31763;48.180;7.904;2024-01-15T07:44:47;-2.70;99.90
46029;DHT22;31763;48.180;7.904;2024-01-15T07:47:14;-2.60;99.90
46029;DHT22;31763;48.180;7.904;2024-01-15T07:49:40;-2.60;99.90
46029;DHT22;31763;48.180;7.904;2024-01-15T07:52:07;-2.60;99.90
46029;DHT22;31763;48.180;7.904;2024-01-15T07:54:34;-2.60;99.90
46029;DHT22;31763;48.180;7.904;2024-01-15T07:57:02;-2.60;99.90
46029;DHT22;31763;48.180;7.904;2024-01-15T07:59:30;-2.60;99.90
46029;DHT22;31763;48.180;7.904;2024-01-15T08:01:59;-2.60;99.90
46029;DHT22;31763;48.180;7.904;2024-01-15T08:04:26;-2.70;99.90
46029;DHT22;31763;48.180;7.904;2024-01-15T08:06:53;-2.60;99.90
46029;DHT22;31763;48.180;7.904;2024-01-15T08:09:21;-2.60;99.90
46029;DHT22;31763;48.180;7.904;2024-01-15T08:11:48;-2.60;99.90
46029;DHT22;31763;48.180;7.904;2024-01-15T08:14:17;-2.50;99.90
46029;DHT22;31763;48.180;7.904;2024-01-15T08:16:44;-2.50;99.90
46029;DHT22;31763;48.180;7.904;2024-01-15T08:19:11;-2.50;99.90
46029;DHT22;31763;48.180;7.904;2024-01-15T08:21:38;-2.50;99.90
46029;DHT22;31763;48.180;7.904;2024-01-15T08:24:05;-2.50;99.90
46029;DHT22;31763;48.180;7.904;2024-01-15T08:26:32;-2.50;99.90
46029;DHT22;31763;48.180;7.904;2024-01-15T08:28:59;-2.50;99.90
46029;DHT22;31763;48.180;7.904;2024-01-15T08:31:26;-2.50;99.90
46029;DHT22;31763;48.180;7.904;2024-01-15T08:33:54;-2.40;99.90
46029;DHT22;31763;48.180;7.904;2024-01-15T08:36:23;-2.40;99.90
46029;DHT22;31763;48.180;7.904;2024-01-15T08:38:51;-2.30;99.90
46029;DHT22;31763;48.180;7.904;2024-01-15T08:41:18;-2.30;99.90
46029;DHT22;31763;48.180;7.904;2024-01-15T08:43:45;-2.40;99.90
46029;DHT22;31763;48.180;7.904;2024-01-15T08:46:12;-2.30;99.90
46029;DHT22;31763;48.180;7.904;2024-01-15T08:48:39;-2.30;99.90
46029;DHT22;31763;48.180;7.904;2024-01-15T08:51:06;-2.30;99.90
46029;DHT22;31763;48.180;7.904;2024-01-15T08:53:35;-2.30;99.90
46029;DHT22;31763;48.180;7.904;2024-01-15T08:56:01;-2.20;99.90
46029;DHT22;31763;48.180;7.904;2024-01-15T08:58:28;-2.20;99.90
46029;DHT22;31763;48.180;7.904;2024-01-15T09:00:55;-2.20;99.90
46029;DHT22;31763;48.180;7.904;2024-01-15T09:03:23;-2.20;99.90
46029;DHT22;31763;48.180;7.904;2024-01-15T09:05:50;-2.20;99.90
46029;DHT22;31763;48.180;7.904;2024-01-15T09:08:17;-2.20;99.90
46029;DHT22;31763;48.180;7.904;2024-01-15T09:10:44;-2.10;99.90
46029;DHT22;31763;48.180;7.904;2024-01-15T09:13:12;-2.10;99.90
46029;DHT22;31763;48.180;7.904;2024-01-15T09:15:39;-2.10;99.90
46029;DHT22;31763;48.180;7.904;2024-01-15T09:18:06;-2.10;99.90
46029;DHT22;31763;48.180;7.904;2024-01-15T09:20:34;-2.00;99.90
46029;DHT22;31763;48.180;7.904;2024-01-15T09:23:02;-2.00;99.90
46029;DHT22;31763;48.180;7.904;2024-01-15T09:25:29;-2.00;99.90
46029;DHT22;31763;48.180;7.904;2024-01-15T09:27:56;-1.90;99.90
46029;DHT22;31763;48.180;7.904;2024-01-15T09:30:23;-1.90;99.90
46029;DHT22;31763;48.180;7.904;2024-01-15T09:32:50;-1.90;99.90
46029;DHT22;31763;48.180;7.904;2024-01-15T09:35:17;-1.90;99.90
46029;DHT22;31763;48.180;7.904;2024-01-15T09:37:46;-1.80;99.90
46029;DHT22;31763;48.180;7.904;2024-01-15T09:40:14;-1.80;99.90
46029;DHT22;31763;48.180;7.904;2024-01-15T09:42:43;-1.70;99.90
46029;DHT22;31763;48.180;7.904;2024-01-15T09:45:11;-1.70;99.90
46029;DHT22;31763;48.180;7.904;2024-01-15T09:47:38;-1.60;99.90
46029;DHT22;31763;48.180;7.904;2024-01-15T09:50:12;-1.60;99.90
46029;DHT22;31763;48.180;7.904;2024-01-15T09:52:44;-1.60;99.90
46029;DHT22;31763;48.180;7.904;2024-01-15T09:55:13;-1.60;99.90
46029;DHT22;31763;48.180;7.904;2024-01-15T09:57:42;-1.60;99.90
46029;DHT22;31763;48.180;7.904;2024-01-15T10:00:11;-1.60;99.90
46029;DHT22;31763;48.180;7.904;2024-01-15T10:02:38;-1.60;99.90
46029;DHT22;31763;48.180;7.904;2024-01-15T10:05:05;-1.60;99.90
46029;DHT22;31763;48.180;7.904;2024-01-15T10:07:35;-1.70;99.90
46029;DHT22;31763;48.180;7.904;2024-01-15T10:10:03;-1.70;99.90
46029;DHT22;31763;48.180;7.904;2024-01-15T10:12:31;-1.70;99.90
46029;DHT22;31763;48.180;7.904;2024-01-15T10:14:58;-1.60;99.90
46029;DHT22;31763;48.180;7.904;2024-01-15T10:17:25;-1.60;99.90
46029;DHT22;31763;48.180;7.904;2024-01-15T10:19:55;-1.60;99.90
46029;DHT22;31763;48.180;7.904;2024-01-15T10:22:22;-1.60;99.90
46029;DHT22;31763;48.180;7.904;2024-01-15T10:24:49;-1.60;99.90
46029;DHT22;31763;48.180;7.904;2024-01-15T10:27:17;-1.60;99.90
46029;DHT22;31763;48.180;7.904;2024-01-15T10:29:44;-1.50;99.90
46029;DHT22;31763;48.180;7.904;2024-01-15T10:32:11;-1.50;99.90
46029;DHT22;31763;48.180;7.904;2024-01-15T10:34:39;-1.50;99.90
46029;DHT22;31763;48.180;7.904;2024-01-15T10:37:08;-1.50;99.90
46029;DHT22;31763;48.180;7.904;2024-01-15T10:39:36;-1.50;99.90
46029;DHT22;31763;48.180;7.904;2024-01-15T10:42:04;-1.50;99.90
46029;DHT22;31763;48.180;7.904;2024-01-15T10:44:33;-1.50;99.90
46029;DHT22;31763;48.180;7.904;2024-01-15T10:46:59;-1.50;99.90
46029;DHT22;31763;48.180;7.904;2024-01-15T10:49:27;-1.40;99.90
46029;DHT22;31763;48.180;7.904;2024-01-15T10:52:03;-1.40;99.90
46029;DHT22;31763;48.180;7.904;2024-01-15T10:54:31;-1.40;99.90
46029;DHT22;31763;48.180;7.904;2024-01-15T10:56:58;-1.40;99.90
46029;DHT22;31763;48.180;7.904;2024-01-15T10:59:26;-1.40;99.90
46029;DHT22;31763;48.180;7.904;2024-01-15T11:01:53;-1.30;99.90
46029;DHT22;31763;48.180;7.904;2024-01-15T11:04:22;-1.30;99.90
46029;DHT22;31763;48.180;7.904;2024-01-15T11:06:53;-1.30;99.90
46029;DHT22;31763;48.180;7.904;2024-01-15T11:09:23;-1.30;99.90
46029;DHT22;31763;48.180;7.904;2024-01-15T11:12:06;-1.20;99.90
46029;DHT22;31763;48.180;7.904;2024-01-15T11:14:39;-1.20;99.90
46029;DHT22;31763;48.180;7.904;2024-01-15T11:17:07;-1.20;99.90
46029;DHT22;31763;48.180;7.904;2024-01-15T11:19:52;-1.20;99.90
46029;DHT22;31763;48.180;7.904;2024-01-15T11:25:05;-1.10;99.90
46029;DHT22;31763;48.180;7.904;2024-01-15T11:27:48;-1.10;99.90
46029;DHT22;31763;48.180;7.904;2024-01-15T11:30:24;-1.00;99.90
46029;DHT22;31763;48.180;7.904;2024-01-15T11:32:52;-1.00;99.90
46029;DHT22;31763;48.180;7.904;2024-01-15T11:35:19;-1.10;99.90
46029;DHT22;31763;48.180;7.904;2024-01-15T11:40:23;-1.00;99.90
46029;DHT22;31763;48.180;7.904;2024-01-15T11:43:06;-1.00;99.90
46029;DHT22;31763;48.180;7.904;2024-01-15T11:45:36;-0.90;99.90
46029;DHT22;31763;48.180;7.904;2024-01-15T11:48:16;-1.00;99.90
46029;DHT22;31763;48.180;7.904;2024-01-15T11:50:50;-0.90;99.90
46029;DHT22;31763;48.180;7.904;2024-01-15T11:53:37;-0.90;99.90
46029;DHT22;31763;48.180;7.904;2024-01-15T11:56:16;-0.90;99.90
46029;DHT22;31763;48.180;7.904;2024-01-15T11:58:44;-0.90;99.90
46029;DHT22;31763;48.180;7.904;2024-01-15T12:01:11;-0.80;99.90
46029;DHT22;31763;48.180;7.904;2024-01-15T12:03:38;-0.80;99.90
46029;DHT22;31763;48.180;7.904;2024-01-15T12:06:06;-0.80;99.90
46029;DHT22;31763;48.180;7.904;2024-01-15T12:08:34;-0.80;99.90
46029;DHT22;31763;48.180;7.904;2024-01-15T12:11:06;-0.80;99.90
46029;DHT22;31763;48.180;7.904;2024-01-15T12:13:37;-0.80;99.90
46029;DHT22;31763;48.180;7.904;2024-01-15T12:16:04;-0.80;99.90
46029;DHT22;31763;48.180;7.904;2024-01-15T12:18:32;-0.70;99.90
46029;DHT22;31763;48.180;7.904;2024-01-15T12:20:59;-0.70;99.90
46029;DHT22;31763;48.180;7.904;2024-01-15T12:23:26;-0.80;99.90
46029;DHT22;31763;48.180;7.904;2024-01-15T12:25:54;-0.70;99.90
46029;DHT22;31763;48.180;7.904;2024-01-15T12:28:21;-0.70;99.90
46029;DHT22;31763;48.180;7.904;2024-01-15T12:30:49;-0.70;99.90
46029;DHT22;31763;48.180;7.904;2024-01-15T12:33:17;-0.70;99.90
46029;DHT22;31763;48.180;7.904;2024-01-15T12:35:45;-0.70;99.90
46029;DHT22;31763;48.180;7.904;2024-01-15T12:38:12;-0.70;99.90
46029;DHT22;31763;48.180;7.904;2024-01-15T12:40:39;-0.60;99.90
46029;DHT22;31763;48.180;7.904;2024-01-15T12:43:06;-0.60;99.90
46029;DHT22;31763;48.180;7.904;2024-01-15T12:45:34;-0.60;99.90
46029;DHT22;31763;48.180;7.904;2024-01-15T12:48:03;-0.60;99.90
46029;DHT22;31763;48.180;7.904;2024-01-15T12:50:33;-0.50;99.90
46029;DHT22;31763;48.180;7.904;2024-01-15T12:53:00;-0.60;99.90
46029;DHT22;31763;48.180;7.904;2024-01-15T12:55:28;-0.60;99.90
46029;DHT22;31763;48.180;7.904;2024-01-15T12:57:55;-0.60;99.90
46029;DHT22;31763;48.180;7.904;2024-01-15T13:00:22;-0.60;99.90
46029;DHT22;31763;48.180;7.904;2024-01-15T13:02:49;-0.60;99.90
46029;DHT22;31763;48.180;7.904;2024-01-15T13:05:17;-0.60;99.90
46029;DHT22;31763;48.180;7.904;2024-01-15T13:07:45;-0.70;99.90
46029;DHT22;31763;48.180;7.904;2024-01-15T13:10:12;-0.70;99.90
46029;DHT22;31763;48.180;7.904;2024-01-15T13:12:40;-0.70;99.90
46029;DHT22;31763;48.180;7.904;2024-01-15T13:15:08;-0.70;99.90
46029;DHT22;31763;48.180;7.904;2024-01-15T13:17:41;-0.70;99.90
46029;DHT22;31763;48.180;7.904;2024-01-15T13:20:09;-0.70;99.90
46029;DHT22;31763;48.180;7.904;2024-01-15T13:22:38;-0.70;99.90
46029;DHT22;31763;48.180;7.904;2024-01-15T13:25:07;-0.70;99.90
46029;DHT22;31763;48.180;7.904;2024-01-15T13:27:35;-0.70;99.90
46029;DHT22;31763;48.180;7.904;2024-01-15T13:30:03;-0.70;99.90
46029;DHT22;31763;48.180;7.904;2024-01-15T13:32:31;-0.70;99.90
46029;DHT22;31763;48.180;7.904;2024-01-15T13:34:59;-0.70;99.90
46029;DHT22;31763;48.180;7.904;2024-01-15T13:37:26;-0.60;99.90
46029;DHT22;31763;48.180;7.904;2024-01-15T13:39:54;-0.70;99.90
46029;DHT22;31763;48.180;7.904;2024-01-15T13:42:21;-0.70;99.90
46029;DHT22;31763;48.180;7.904;2024-01-15T13:44:49;-0.70;99.90
46029;DHT22;31763;48.180;7.904;2024-01-15T13:47:16;-0.80;99.90
46029;DHT22;31763;48.180;7.904;2024-01-15T13:49:43;-0.70;99.90
46029;DHT22;31763;48.180;7.904;2024-01-15T13:52:10;-0.70;99.90
46029;DHT22;31763;48.180;7.904;2024-01-15T13:54:37;-0.70;99.90
46029;DHT22;31763;48.180;7.904;2024-01-15T13:57:16;-0.70;99.90
46029;DHT22;31763;48.180;7.904;2024-01-15T13:59:44;-0.70;99.90
46029;DHT22;31763;48.180;7.904;2024-01-15T14:02:11;-0.70;99.90
46029;DHT22;31763;48.180;7.904;2024-01-15T14:04:41;-0.70;99.90
46029;DHT22;31763;48.180;7.904;2024-01-15T14:07:08;-0.60;99.90
46029;DHT22;31763;48.180;7.904;2024-01-15T14:09:35;-0.60;99.90
46029;DHT22;31763;48.180;7.904;2024-01-15T14:12:04;-0.60;99.90
46029;DHT22;31763;48.180;7.904;2024-01-15T14:14:33;-0.60;99.90
46029;DHT22;31763;48.180;7.904;2024-01-15T14:16:59;-0.60;99.90
46029;DHT22;31763;48.180;7.904;2024-01-15T14:19:26;-0.60;99.90
46029;DHT22;31763;48.180;7.904;2024-01-15T14:21:54;-0.60;99.90
46029;DHT22;31763;48.180;7.904;2024-01-15T14:24:22;-0.70;99.90
46029;DHT22;31763;48.180;7.904;2024-01-15T14:26:49;-0.70;99.90
46029;DHT22;31763;48.180;7.904;2024-01-15T14:29:16;-0.70;99.90
46029;DHT22;31763;48.180;7.904;2024-01-15T14:31:45;-0.80;99.90
46029;DHT22;31763;48.180;7.904;2024-01-15T14:34:13;-0.70;99.90
46029;DHT22;31763;48.180;7.904;2024-01-15T14:36:40;-0.70;99.90
46029;DHT22;31763;48.180;7.904;2024-01-15T14:39:07;-0.70;99.90
46029;DHT22;31763;48.180;7.904;2024-01-15T14:41:36;-0.70;99.90
46029;DHT22;31763;48.180;7.904;2024-01-15T14:44:03;-0.70;99.90
46029;DHT22;31763;48.180;7.904;2024-01-15T14:46:30;-0.70;99.90
46029;DHT22;31763;48.180;7.904;2024-01-15T14:48:57;-0.70;99.90
46029;DHT22;31763;48.180;7.904;2024-01-15T14:51:24;-0.60;99.90
46029;DHT22;31763;48.180;7.904;2024-01-15T14:53:51;-0.70;99.90
46029;DHT22;31763;48.180;7.904;2024-01-15T14:56:18;-0.70;99.90
46029;DHT22;31763;48.180;7.904;2024-01-15T14:58:45;-0.70;99.90
46029;DHT22;31763;48.180;7.904;2024-01-15T15:01:12;-0.80;99.90
46029;DHT22;31763;48.180;7.904;2024-01-15T15:03:40;-0.70;99.90
46029;DHT22;31763;48.180;7.904;2024-01-15T15:06:07;-0.60;99.90
46029;DHT22;31763;48.180;7.904;2024-01-15T15:08:36;-0.70;99.90
46029;DHT22;31763;48.180;7.904;2024-01-15T15:11:04;-0.70;99.90
46029;DHT22;31763;48.180;7.904;2024-01-15T15:13:31;-0.80;99.90
46029;DHT22;31763;48.180;7.904;2024-01-15T15:16:10;-0.70;99.90
46029;DHT22;31763;48.180;7.904;2024-01-15T15:18:39;-0.80;99.90
46029;DHT22;31763;48.180;7.904;2024-01-15T15:21:06;-0.70;99.90
46029;DHT22;31763;48.180;7.904;2024-01-15T15:23:34;-0.70;99.90
46029;DHT22;31763;48.180;7.904;2024-01-15T15:26:01;-0.80;99.90
46029;DHT22;31763;48.180;7.904;2024-01-15T15:28:28;-0.80;99.90
46029;DHT22;31763;48.180;7.904;2024-01-15T15:30:55;-0.80;99.90
46029;DHT22;31763;48.180;7.904;2024-01-15T15:33:23;-0.80;99.90
46029;DHT22;31763;48.180;7.904;2024-01-15T15:35:51;-0.80;99.90
46029;DHT22;31763;48.180;7.904;2024-01-15T15:38:18;-0.80;99.90
46029;DHT22;31763;48.180;7.904;2024-01-15T15:40:46;-0.70;99.90
46029;DHT22;31763;48.180;7.904;2024-01-15T15:43:13;-0.80;99.90